^^
Station Historical Data
Daily Summary for April 15, 2018 Units:  English    Metric   Both
« Previous Day
Next Day »
Daily Weekly Monthly Yearly Custom
  High: Low: Average:
Temperature: 37.7 °F 17.6 °F 28.2 °F
Dew Point: 23.2 °F 12.6 °F 17.5 °F
Humidity: 84% 39% 65%
Wind Speed: 16.0mph 0.0mph 6.2mph
Wind Gust: 21.0mph - -
Wind- - East
Pressure: 30.36 in 30.25 in -
Precipitation: 0.00 in    
Historical Graphs
 
 
Tabular Data for April 15, 2018
Time Temperature Dew Point Pressure Wind Wind Speed Wind Gust Humidity Rainfall Rate (Hourly) solar Conditions
00:04 23.6 °F 17.1 °F 30.36 in ENE 8.0 mph 9.0 mph 76% 0.00 in 0 W/m2
00:09 23.6 °F 17.1 °F 30.36 in ENE 7.0 mph 9.0 mph 76% 0.00 in 0 W/m2
00:14 23.5 °F 17.3 °F 30.36 in ENE 4.0 mph 9.0 mph 77% 0.00 in 0 W/m2
00:19 23.4 °F 17.3 °F 30.36 in ENE 5.0 mph 8.0 mph 77% 0.00 in 0 W/m2
00:24 23.4 °F 17.3 °F 30.36 in ENE 5.0 mph 8.0 mph 77% 0.00 in 0 W/m2
00:29 23.3 °F 17.2 °F 30.36 in ENE 5.0 mph 8.0 mph 77% 0.00 in 0 W/m2
00:34 23.2 °F 17.1 °F 30.36 in ENE 4.0 mph 8.0 mph 77% 0.00 in 0 W/m2
00:39 23.1 °F 17.0 °F 30.36 in ENE 5.0 mph 8.0 mph 77% 0.00 in 0 W/m2
00:44 23.1 °F 17.3 °F 30.36 in ENE 4.0 mph 8.0 mph 78% 0.00 in 0 W/m2
00:49 23.1 °F 17.3 °F 30.36 in ENE 3.0 mph 8.0 mph 78% 0.00 in 0 W/m2
00:55 23.1 °F 17.3 °F 30.36 in ENE 3.0 mph 6.0 mph 78% 0.00 in 0 W/m2
01:00 23.0 °F 17.2 °F 30.35 in ENE 3.0 mph 4.0 mph 78% 0.00 in 0 W/m2
01:05 22.9 °F 17.1 °F 30.35 in ENE 2.0 mph 3.0 mph 78% 0.00 in 0 W/m2
01:10 22.7 °F 16.9 °F 30.35 in ENE 4.0 mph 5.0 mph 78% 0.00 in 0 W/m2
01:15 22.7 °F 16.9 °F 30.35 in East 5.0 mph 7.0 mph 78% 0.00 in 0 W/m2
01:20 22.7 °F 16.9 °F 30.35 in ENE 4.0 mph 7.0 mph 78% 0.00 in 0 W/m2
01:25 22.8 °F 17.0 °F 30.35 in ENE 3.0 mph 7.0 mph 78% 0.00 in 0 W/m2
01:30 22.9 °F 16.8 °F 30.35 in ENE 3.0 mph 7.0 mph 77% 0.00 in 0 W/m2
01:35 22.7 °F 16.6 °F 30.34 in ENE 2.0 mph 5.0 mph 77% 0.00 in 0 W/m2
01:40 22.5 °F 16.4 °F 30.34 in East 3.0 mph 4.0 mph 77% 0.00 in 0 W/m2
01:45 22.4 °F 16.6 °F 30.35 in East 2.0 mph 6.0 mph 78% 0.00 in 0 W/m2
01:50 22.2 °F 16.4 °F 30.35 in East 2.0 mph 6.0 mph 78% 0.00 in 0 W/m2
01:55 22.0 °F 16.2 °F 30.35 in East 1.0 mph 6.0 mph 78% 0.00 in 0 W/m2
02:00 21.4 °F 15.6 °F 30.35 in Calm   3.0 mph 78% 0.00 in 0 W/m2
02:05 20.9 °F 15.1 °F 30.35 in SE 1.0 mph 2.0 mph 78% 0.00 in 0 W/m2
02:10 20.5 °F 15.0 °F 30.35 in SE 2.0 mph 2.0 mph 79% 0.00 in 0 W/m2
02:15 20.2 °F 15.0 °F 30.35 in SE 1.0 mph 2.0 mph 80% 0.00 in 0 W/m2
02:20 20.0 °F 15.1 °F 30.34 in SE 1.0 mph 2.0 mph 81% 0.00 in 0 W/m2
02:25 19.8 °F 15.2 °F 30.34 in Calm   2.0 mph 82% 0.00 in 0 W/m2
02:30 19.6 °F 15.0 °F 30.35 in Calm   2.0 mph 82% 0.00 in 0 W/m2
02:35 19.5 °F 15.2 °F 30.35 in Calm     83% 0.00 in 0 W/m2
02:40 19.5 °F 15.2 °F 30.35 in Calm     83% 0.00 in 0 W/m2
02:45 19.5 °F 15.2 °F 30.35 in ENE 2.0 mph 2.0 mph 83% 0.00 in 0 W/m2
02:50 20.1 °F 15.8 °F 30.35 in ENE 3.0 mph 4.0 mph 83% 0.00 in 0 W/m2
02:55 20.5 °F 15.9 °F 30.34 in East 3.0 mph 5.0 mph 82% 0.00 in 0 W/m2
03:00 20.7 °F 15.8 °F 30.34 in ENE 3.0 mph 5.0 mph 81% 0.00 in 0 W/m2
03:05 20.8 °F 15.6 °F 30.34 in ENE 5.0 mph 5.0 mph 80% 0.00 in 0 W/m2
03:10 21.0 °F 15.5 °F 30.34 in ENE 3.0 mph 5.0 mph 79% 0.00 in 0 W/m2
03:15 21.2 °F 15.7 °F 30.34 in ENE 4.0 mph 5.0 mph 79% 0.00 in 0 W/m2
03:20 21.2 °F 15.4 °F 30.34 in ENE 4.0 mph 5.0 mph 78% 0.00 in 0 W/m2
03:25 21.2 °F 15.4 °F 30.34 in ENE 5.0 mph 5.0 mph 78% 0.00 in 0 W/m2
03:30 21.2 °F 15.4 °F 30.33 in ENE 5.0 mph 5.0 mph 78% 0.00 in 0 W/m2
03:35 21.0 °F 15.2 °F 30.34 in ENE 4.0 mph 7.0 mph 78% 0.00 in 0 W/m2
03:40 20.9 °F 15.4 °F 30.33 in ENE 4.0 mph 7.0 mph 79% 0.00 in 0 W/m2
03:45 20.8 °F 15.3 °F 30.34 in ENE 4.0 mph 5.0 mph 79% 0.00 in 0 W/m2
03:50 20.8 °F 15.3 °F 30.33 in ENE 4.0 mph 5.0 mph 79% 0.00 in 0 W/m2
03:55 20.8 °F 15.6 °F 30.33 in ENE 5.0 mph 7.0 mph 80% 0.00 in 0 W/m2
04:00 20.6 °F 15.4 °F 30.33 in ENE 4.0 mph 7.0 mph 80% 0.00 in 0 W/m2
04:05 20.5 °F 15.3 °F 30.33 in ENE 4.0 mph 7.0 mph 80% 0.00 in 0 W/m2
04:10 20.3 °F 15.1 °F 30.34 in ENE 4.0 mph 7.0 mph 80% 0.00 in 0 W/m2
04:15 20.3 °F 15.1 °F 30.34 in ENE 4.0 mph 5.0 mph 80% 0.00 in 0 W/m2
04:20 20.1 °F 15.2 °F 30.34 in ENE 4.0 mph 5.0 mph 81% 0.00 in 0 W/m2
04:25 20.1 °F 15.2 °F 30.33 in ENE 4.0 mph 7.0 mph 81% 0.00 in 0 W/m2
04:30 20.0 °F 14.8 °F 30.34 in ENE 3.0 mph 7.0 mph 80% 0.00 in 0 W/m2
04:35 20.0 °F 15.1 °F 30.34 in ENE 2.0 mph 7.0 mph 81% 0.00 in 0 W/m2
04:40 19.9 °F 15.0 °F 30.34 in ENE 2.0 mph 4.0 mph 81% 0.00 in 0 W/m2
04:45 19.6 °F 14.4 °F 30.34 in ENE 2.0 mph 4.0 mph 80% 0.00 in 0 W/m2
04:50 19.4 °F 14.5 °F 30.34 in Calm   2.0 mph 81% 0.00 in 0 W/m2
04:55 19.0 °F 13.8 °F 30.34 in Calm   2.0 mph 80% 0.00 in 0 W/m2
05:00 18.7 °F 13.8 °F 30.34 in Calm   1.0 mph 81% 0.00 in 0 W/m2
05:05 18.5 °F 13.9 °F 30.34 in ENE 3.0 mph 3.0 mph 82% 0.00 in 0 W/m2
05:10 19.1 °F 14.8 °F 30.34 in ENE 5.0 mph 5.0 mph 83% 0.00 in 0 W/m2
05:15 19.7 °F 15.4 °F 30.33 in ENE 5.0 mph 7.0 mph 83% 0.00 in 0 W/m2
05:20 19.9 °F 15.3 °F 30.33 in ENE 7.0 mph 7.0 mph 82% 0.00 in 0 W/m2
05:25 19.8 °F 15.2 °F 30.33 in ENE 5.0 mph 7.0 mph 82% 0.00 in 0 W/m2
05:30 19.7 °F 15.1 °F 30.33 in ENE 4.0 mph 7.0 mph 82% 0.00 in 0 W/m2
05:35 19.5 °F 14.6 °F 30.33 in ENE 4.0 mph 7.0 mph 81% 0.00 in 0 W/m2
05:40 19.4 °F 14.5 °F 30.34 in ENE 4.0 mph 7.0 mph 81% 0.00 in 0 W/m2
05:45 19.6 °F 15.0 °F 30.34 in ENE 4.0 mph 7.0 mph 82% 0.00 in 0 W/m2
05:50 19.9 °F 15.0 °F 30.33 in ENE 3.0 mph 7.0 mph 81% 0.00 in 0 W/m2
05:55 19.8 °F 14.9 °F 30.33 in ENE 1.0 mph 5.0 mph 81% 0.00 in 0 W/m2
06:00 19.3 °F 13.9 °F 30.34 in Calm   4.0 mph 79% 0.00 in 0 W/m2
06:05 18.9 °F 13.7 °F 30.33 in ENE 1.0 mph 2.0 mph 80% 0.00 in 0 W/m2
06:10 18.6 °F 13.5 °F 30.34 in ENE 2.0 mph 2.0 mph 80% 0.00 in 0 W/m2
06:15 18.4 °F 13.5 °F 30.33 in ENE 1.0 mph 2.0 mph 81% 0.00 in 0 W/m2
06:20 18.2 °F 13.3 °F 30.33 in ENE 1.0 mph 2.0 mph 81% 0.00 in 0 W/m2
06:25 17.9 °F 13.1 °F 30.34 in Calm   2.0 mph 81% 0.00 in 0 W/m2
06:30 17.6 °F 13.0 °F 30.34 in Calm   2.0 mph 82% 0.00 in 0 W/m2
06:35 17.6 °F 13.3 °F 30.34 in ENE 2.0 mph 4.0 mph 83% 0.00 in 0 W/m2
06:40 18.0 °F 14.0 °F 30.34 in ENE 2.0 mph 4.0 mph 84% 0.00 in 0 W/m2
06:45 18.2 °F 13.9 °F 30.34 in ENE 2.0 mph 3.0 mph 83% 0.00 in 0 W/m2
06:50 18.5 °F 13.9 °F 30.34 in ENE 3.0 mph 4.0 mph 82% 0.00 in 0 W/m2
06:55 18.5 °F 13.9 °F 30.34 in ENE 4.0 mph 4.0 mph 82% 0.00 in 0 W/m2
07:00 18.6 °F 14.0 °F 30.34 in ENE 5.0 mph 5.0 mph 82% 0.00 in 5 W/m2
07:05 18.7 °F 13.8 °F 30.35 in ENE 4.0 mph 7.0 mph 81% 0.00 in 7 W/m2
07:10 18.7 °F 13.8 °F 30.35 in NE 4.0 mph 7.0 mph 81% 0.00 in 11 W/m2
07:15 18.6 °F 13.7 °F 30.35 in ENE 3.0 mph 7.0 mph 81% 0.00 in 14 W/m2
07:20 18.6 °F 13.7 °F 30.35 in NE 3.0 mph 5.0 mph 81% 0.00 in 18 W/m2
07:25 18.5 °F 13.6 °F 30.35 in ENE 3.0 mph 4.0 mph 81% 0.00 in 21 W/m2
07:30 18.6 °F 13.7 °F 30.35 in ENE 3.0 mph 4.0 mph 81% 0.00 in 25 W/m2
07:35 19.0 °F 14.1 °F 30.35 in ENE 3.0 mph 4.0 mph 81% 0.00 in 28 W/m2
07:40 19.5 °F 14.6 °F 30.34 in ENE 5.0 mph 8.0 mph 81% 0.00 in 32 W/m2
07:45 19.8 °F 14.6 °F 30.34 in ENE 7.0 mph 9.0 mph 80% 0.00 in 33 W/m2
07:50 20.3 °F 14.8 °F 30.35 in ENE 5.0 mph 9.0 mph 79% 0.00 in 37 W/m2
07:55 20.7 °F 15.2 °F 30.35 in ENE 4.0 mph 8.0 mph 79% 0.00 in 39 W/m2
08:00 21.1 °F 15.3 °F 30.35 in ENE 4.0 mph 8.0 mph 78% 0.00 in 40 W/m2
08:05 21.6 °F 15.8 °F 30.35 in ENE 5.0 mph 8.0 mph 78% 0.00 in 42 W/m2
08:10 22.1 °F 16.0 °F 30.35 in ENE 4.0 mph 8.0 mph 77% 0.00 in 46 W/m2
08:15 22.7 °F 16.3 °F 30.36 in ENE 7.0 mph 9.0 mph 76% 0.00 in 167 W/m2
08:20 23.3 °F 16.5 °F 30.36 in East 5.0 mph 9.0 mph 75% 0.00 in 183 W/m2
08:25 24.2 °F 17.1 °F 30.36 in ENE 7.0 mph 9.0 mph 74% 0.00 in 200 W/m2
08:30 24.7 °F 17.3 °F 30.36 in ENE 8.0 mph 10.0 mph 73% 0.00 in 220 W/m2
08:35 25.1 °F 17.3 °F 30.35 in ENE 9.0 mph 12.0 mph 72% 0.00 in 236 W/m2
08:40 25.4 °F 17.6 °F 30.36 in ENE 8.0 mph 12.0 mph 72% 0.00 in 253 W/m2
08:45 25.6 °F 17.8 °F 30.36 in NE 6.0 mph 14.0 mph 72% 0.00 in 271 W/m2
08:50 25.9 °F 18.1 °F 30.35 in ENE 11.0 mph 15.0 mph 72% 0.00 in 260 W/m2
08:55 25.9 °F 17.8 °F 30.36 in ENE 12.0 mph 15.0 mph 71% 0.00 in 260 W/m2
09:00 26.0 °F 17.9 °F 30.36 in ENE 13.0 mph 16.0 mph 71% 0.00 in 322 W/m2
09:05 26.0 °F 17.9 °F 30.36 in East 9.0 mph 16.0 mph 71% 0.00 in 343 W/m2
09:10 26.4 °F 18.3 °F 30.36 in East 11.0 mph 16.0 mph 71% 0.00 in 359 W/m2
09:15 26.7 °F 18.6 °F 30.36 in ENE 9.0 mph 17.0 mph 71% 0.00 in 373 W/m2
09:20 27.0 °F 18.8 °F 30.36 in East 13.0 mph 17.0 mph 71% 0.00 in 387 W/m2
09:25 27.0 °F 18.5 °F 30.35 in East 13.0 mph 16.0 mph 70% 0.00 in 403 W/m2
09:30 26.9 °F 18.1 °F 30.36 in ENE 13.0 mph 17.0 mph 69% 0.00 in 418 W/m2
09:35 27.5 °F 18.3 °F 30.36 in ENE 13.0 mph 17.0 mph 68% 0.00 in 434 W/m2
09:40 27.7 °F 18.2 °F 30.36 in ENE 13.0 mph 17.0 mph 67% 0.00 in 446 W/m2
09:45 28.4 °F 18.8 °F 30.36 in ENE 13.0 mph 15.0 mph 67% 0.00 in 462 W/m2
09:50 28.4 °F 18.1 °F 30.36 in ENE 8.0 mph 15.0 mph 65% 0.00 in 480 W/m2
09:55 28.6 °F 18.0 °F 30.36 in East 7.0 mph 15.0 mph 64% 0.00 in 494 W/m2
10:00 28.9 °F 18.2 °F 30.36 in ESE 9.0 mph 13.0 mph 64% 0.00 in 510 W/m2
10:05 29.0 °F 17.6 °F 30.36 in ESE 10.0 mph 13.0 mph 62% 0.00 in 522 W/m2
10:10 28.7 °F 17.3 °F 30.36 in East 8.0 mph 13.0 mph 62% 0.00 in 540 W/m2
10:15 29.1 °F 18.1 °F 30.36 in SE 8.0 mph 13.0 mph 63% 0.00 in 554 W/m2
10:20 29.3 °F 18.3 °F 30.36 in ESE 4.0 mph 11.0 mph 63% 0.00 in 564 W/m2
10:25 29.8 °F 18.0 °F 30.36 in East 5.0 mph 11.0 mph 61% 0.00 in 575 W/m2
10:30 30.0 °F 18.2 °F 30.35 in East 7.0 mph 10.0 mph 61% 0.00 in 591 W/m2
10:35 30.2 °F 18.4 °F 30.35 in East 8.0 mph 10.0 mph 61% 0.00 in 589 W/m2
10:40 30.5 °F 17.9 °F 30.35 in ESE 5.0 mph 10.0 mph 59% 0.00 in 578 W/m2
10:45 30.4 °F 16.6 °F 30.35 in SE 4.0 mph 10.0 mph 56% 0.00 in 561 W/m2
10:50 30.4 °F 17.4 °F 30.35 in East 6.0 mph 10.0 mph 58% 0.00 in 545 W/m2
10:55 30.9 °F 17.8 °F 30.35 in SE 5.0 mph 10.0 mph 58% 0.00 in 533 W/m2
11:00 31.2 °F 17.3 °F 30.35 in ENE 4.0 mph 8.0 mph 56% 0.00 in 529 W/m2
11:05 31.6 °F 16.8 °F 30.35 in East 7.0 mph 10.0 mph 54% 0.00 in 540 W/m2
11:10 31.7 °F 16.9 °F 30.35 in SE 2.0 mph 10.0 mph 54% 0.00 in 563 W/m2
11:15 31.9 °F 17.1 °F 30.35 in Calm   9.0 mph 54% 0.00 in 577 W/m2
11:20 32.0 °F 16.3 °F 30.35 in East 5.0 mph 9.0 mph 52% 0.00 in 587 W/m2
11:25 32.4 °F 16.7 °F 30.35 in SE 2.0 mph 9.0 mph 52% 0.00 in 642 W/m2
11:30 32.4 °F 16.7 °F 30.35 in ESE 3.0 mph 9.0 mph 52% 0.00 in 708 W/m2
11:35 32.4 °F 16.3 °F 30.35 in ENE 5.0 mph 9.0 mph 51% 0.00 in 735 W/m2
11:40 32.5 °F 15.4 °F 30.34 in NE 2.0 mph 9.0 mph 49% 0.00 in 751 W/m2
11:45 33.0 °F 15.9 °F 30.34 in ENE 5.0 mph 10.0 mph 49% 0.00 in 759 W/m2
11:50 32.8 °F 14.8 °F 30.34 in NE 7.0 mph 11.0 mph 47% 0.00 in 765 W/m2
11:55 32.8 °F 15.7 °F 30.34 in ESE 4.0 mph 14.0 mph 49% 0.00 in 775 W/m2
12:00 32.9 °F 15.3 °F 30.34 in ENE 9.0 mph 14.0 mph 48% 0.00 in 784 W/m2
12:05 33.1 °F 13.5 °F 30.34 in ENE 2.0 mph 13.0 mph 44% 0.00 in 793 W/m2
12:10 33.6 °F 14.5 °F 30.34 in NE 6.0 mph 13.0 mph 45% 0.00 in 800 W/m2
12:15 34.0 °F 14.9 °F 30.34 in ENE 7.0 mph 13.0 mph 45% 0.00 in 807 W/m2
12:20 34.1 °F 13.9 °F 30.34 in NE 3.0 mph 11.0 mph 43% 0.00 in 814 W/m2
12:25 33.9 °F 13.2 °F 30.34 in ENE 11.0 mph 12.0 mph 42% 0.00 in 821 W/m2
12:30 33.6 °F 13.5 °F 30.33 in ENE 7.0 mph 12.0 mph 43% 0.00 in 826 W/m2
12:35 34.1 °F 14.9 °F 30.33 in East 6.0 mph 11.0 mph 45% 0.00 in 831 W/m2
12:40 34.4 °F 13.6 °F 30.33 in East 3.0 mph 9.0 mph 42% 0.00 in 835 W/m2
12:45 34.7 °F 14.5 °F 30.33 in East 6.0 mph 15.0 mph 43% 0.00 in 842 W/m2
12:50 34.9 °F 14.1 °F 30.33 in ENE 5.0 mph 15.0 mph 42% 0.00 in 846 W/m2
12:55 35.1 °F 12.6 °F 30.33 in ENE 8.0 mph 15.0 mph 39% 0.00 in 851 W/m2
13:00 35.2 °F 13.8 °F 30.33 in ENE 9.0 mph 15.0 mph 41% 0.00 in 854 W/m2
13:05 35.0 °F 14.2 °F 30.32 in ENE 9.0 mph 15.0 mph 42% 0.00 in 854 W/m2
13:10 35.4 °F 13.4 °F 30.32 in East 7.0 mph 16.0 mph 40% 0.00 in 858 W/m2
13:15 35.4 °F 15.1 °F 30.32 in NE 6.0 mph 16.0 mph 43% 0.00 in 860 W/m2
13:20 35.6 °F 15.3 °F 30.32 in ESE 8.0 mph 15.0 mph 43% 0.00 in 863 W/m2
13:25 35.6 °F 15.3 °F 30.32 in ENE 8.0 mph 15.0 mph 43% 0.00 in 865 W/m2
13:30 35.5 °F 14.1 °F 30.32 in ENE 12.0 mph 14.0 mph 41% 0.00 in 865 W/m2
13:35 35.7 °F 15.4 °F 30.32 in ENE 10.0 mph 14.0 mph 43% 0.00 in 867 W/m2
13:40 36.1 °F 16.3 °F 30.32 in ESE 4.0 mph 13.0 mph 44% 0.00 in 867 W/m2
13:45 36.0 °F 16.7 °F 30.32 in ENE 2.0 mph 14.0 mph 45% 0.00 in 868 W/m2
13:50 36.3 °F 15.4 °F 30.32 in ENE 5.0 mph 16.0 mph 42% 0.00 in 868 W/m2
13:55 36.3 °F 15.9 °F 30.32 in ENE 9.0 mph 16.0 mph 43% 0.00 in 867 W/m2
14:00 35.9 °F 15.5 °F 30.32 in ENE 10.0 mph 12.0 mph 43% 0.00 in 867 W/m2
14:05 36.2 °F 16.9 °F 30.31 in East 10.0 mph 14.0 mph 45% 0.00 in 865 W/m2
14:10 36.2 °F 16.9 °F 30.31 in ENE 8.0 mph 14.0 mph 45% 0.00 in 863 W/m2
14:15 36.6 °F 17.7 °F 30.31 in NE 8.0 mph 14.0 mph 46% 0.00 in 861 W/m2
14:20 36.8 °F 18.4 °F 30.31 in East 15.0 mph 15.0 mph 47% 0.00 in 861 W/m2
14:25 36.4 °F 17.1 °F 30.31 in East 8.0 mph 15.0 mph 45% 0.00 in 858 W/m2
14:30 36.4 °F 17.1 °F 30.31 in ENE 10.0 mph 15.0 mph 45% 0.00 in 856 W/m2
14:35 36.7 °F 18.3 °F 30.31 in ESE 5.0 mph 15.0 mph 47% 0.00 in 853 W/m2
14:40 36.4 °F 19.0 °F 30.31 in ESE 9.0 mph 16.0 mph 49% 0.00 in 849 W/m2
14:45 36.9 °F 20.0 °F 30.31 in SE 11.0 mph 16.0 mph 50% 0.00 in 844 W/m2
14:50 36.7 °F 19.3 °F 30.31 in ENE 9.0 mph 16.0 mph 49% 0.00 in 837 W/m2
14:55 36.6 °F 20.2 °F 30.30 in NE 4.0 mph 18.0 mph 51% 0.00 in 835 W/m2
15:00 36.8 °F 20.8 °F 30.30 in ENE 8.0 mph 18.0 mph 52% 0.00 in 828 W/m2
15:05 36.7 °F 21.2 °F 30.30 in East 9.0 mph 18.0 mph 53% 0.00 in 823 W/m2
15:10 36.7 °F 20.3 °F 30.30 in ESE 11.0 mph 18.0 mph 51% 0.00 in 817 W/m2
15:15 36.6 °F 20.6 °F 30.30 in ESE 12.0 mph 16.0 mph 52% 0.00 in 810 W/m2
15:20 36.6 °F 20.6 °F 30.30 in SE 7.0 mph 16.0 mph 52% 0.00 in 805 W/m2
15:25 36.7 °F 20.7 °F 30.30 in ESE 10.0 mph 16.0 mph 52% 0.00 in 800 W/m2
15:30 36.6 °F 21.5 °F 30.30 in East 5.0 mph 14.0 mph 54% 0.00 in 791 W/m2
15:35 36.7 °F 21.6 °F 30.30 in East 5.0 mph 15.0 mph 54% 0.00 in 780 W/m2
15:40 36.9 °F 21.3 °F 30.30 in ESE 8.0 mph 15.0 mph 53% 0.00 in 779 W/m2
15:45 37.0 °F 21.4 °F 30.30 in ENE 10.0 mph 13.0 mph 53% 0.00 in 768 W/m2
15:50 36.9 °F 21.3 °F 30.30 in ENE 8.0 mph 11.0 mph 53% 0.00 in 759 W/m2
15:55 37.1 °F 21.5 °F 30.29 in East 9.0 mph 13.0 mph 53% 0.00 in 751 W/m2
16:00 36.9 °F 20.9 °F 30.29 in East 6.0 mph 13.0 mph 52% 0.00 in 742 W/m2
16:05 37.2 °F 21.6 °F 30.29 in East 6.0 mph 13.0 mph 53% 0.00 in 733 W/m2
16:10 37.1 °F 21.5 °F 30.28 in NE 7.0 mph 12.0 mph 53% 0.00 in 722 W/m2
16:15 37.2 °F 22.1 °F 30.28 in NE 7.0 mph 12.0 mph 54% 0.00 in 712 W/m2
16:20 37.4 °F 22.3 °F 30.28 in East 10.0 mph 10.0 mph 54% 0.00 in 701 W/m2
16:25 37.7 °F 22.1 °F 30.27 in East 6.0 mph 13.0 mph 53% 0.00 in 691 W/m2
16:30 37.4 °F 22.7 °F 30.27 in East 8.0 mph 14.0 mph 55% 0.00 in 679 W/m2
16:35 37.7 °F 23.0 °F 30.27 in East 11.0 mph 16.0 mph 55% 0.00 in 666 W/m2
16:40 37.5 °F 21.5 °F 30.27 in NE 9.0 mph 16.0 mph 52% 0.00 in 656 W/m2
16:45 37.3 °F 22.2 °F 30.27 in ENE 12.0 mph 16.0 mph 54% 0.00 in 643 W/m2
16:50 37.3 °F 21.7 °F 30.26 in ENE 12.0 mph 14.0 mph 53% 0.00 in 631 W/m2
16:55 37.4 °F 22.7 °F 30.26 in ESE 11.0 mph 16.0 mph 55% 0.00 in 619 W/m2
17:00 37.4 °F 22.3 °F 30.26 in NE 8.0 mph 16.0 mph 54% 0.00 in 608 W/m2
17:05 37.4 °F 22.7 °F 30.26 in ESE 16.0 mph 18.0 mph 55% 0.00 in 594 W/m2
17:10 37.3 °F 22.2 °F 30.26 in ENE 11.0 mph 18.0 mph 54% 0.00 in 578 W/m2
17:15 37.1 °F 22.0 °F 30.26 in ENE 8.0 mph 18.0 mph 54% 0.00 in 566 W/m2
17:20 37.3 °F 22.6 °F 30.25 in ENE 10.0 mph 18.0 mph 55% 0.00 in 550 W/m2
17:25 37.2 °F 22.5 °F 30.25 in ESE 10.0 mph 17.0 mph 55% 0.00 in 540 W/m2
17:30 37.0 °F 23.2 °F 30.25 in East 10.0 mph 17.0 mph 57% 0.00 in 526 W/m2
17:35 37.4 °F 23.1 °F 30.25 in East 14.0 mph 17.0 mph 56% 0.00 in 510 W/m2
17:40 37.4 °F 21.8 °F 30.25 in ENE 13.0 mph 21.0 mph 53% 0.00 in 497 W/m2
17:45 37.2 °F 22.5 °F 30.25 in East 9.0 mph 21.0 mph 55% 0.00 in 480 W/m2
17:50 37.5 °F 23.2 °F 30.25 in ENE 8.0 mph 17.0 mph 56% 0.00 in 468 W/m2
17:55 37.5 °F 22.8 °F 30.25 in East 14.0 mph 16.0 mph 55% 0.00 in 452 W/m2
18:00 37.5 °F 22.8 °F 30.25 in ESE 12.0 mph 16.0 mph 55% 0.00 in 438 W/m2
18:05 36.9 °F 22.2 °F 30.25 in ESE 15.0 mph 16.0 mph 55% 0.00 in 422 W/m2
18:10 36.6 °F 22.4 °F 30.25 in East 9.0 mph 16.0 mph 56% 0.00 in 406 W/m2
18:15 36.8 °F 22.6 °F 30.25 in ESE 13.0 mph 17.0 mph 56% 0.00 in 390 W/m2
18:20 36.5 °F 21.4 °F 30.25 in East 14.0 mph 17.0 mph 54% 0.00 in 374 W/m2
18:25 36.4 °F 20.9 °F 30.26 in ENE 12.0 mph 17.0 mph 53% 0.00 in 357 W/m2
18:30 36.5 °F 21.4 °F 30.25 in East 13.0 mph 16.0 mph 54% 0.00 in 341 W/m2
18:35 36.6 °F 20.6 °F 30.25 in East 11.0 mph 19.0 mph 52% 0.00 in 329 W/m2
18:40 36.2 °F 20.7 °F 30.25 in ENE 7.0 mph 19.0 mph 53% 0.00 in 313 W/m2
18:45 36.0 °F 19.1 °F 30.26 in ESE 8.0 mph 18.0 mph 50% 0.00 in 294 W/m2
18:50 36.0 °F 20.1 °F 30.26 in ESE 11.0 mph 18.0 mph 52% 0.00 in 274 W/m2
18:55 35.7 °F 18.4 °F 30.26 in ESE 10.0 mph 19.0 mph 49% 0.00 in 255 W/m2
19:00 35.4 °F 19.5 °F 30.26 in East 9.0 mph 19.0 mph 52% 0.00 in 232 W/m2
19:05 35.5 °F 20.0 °F 30.26 in East 11.0 mph 17.0 mph 53% 0.00 in 211 W/m2
19:10 35.4 °F 20.4 °F 30.26 in ESE 8.0 mph 16.0 mph 54% 0.00 in 193 W/m2
19:15 35.3 °F 20.7 °F 30.26 in ESE 10.0 mph 16.0 mph 55% 0.00 in 174 W/m2
19:20 35.2 °F 19.8 °F 30.26 in East 11.0 mph 16.0 mph 53% 0.00 in 153 W/m2
19:25 34.9 °F 19.5 °F 30.26 in East 11.0 mph 16.0 mph 53% 0.00 in 134 W/m2
19:30 34.7 °F 19.7 °F 30.26 in SE 7.0 mph 17.0 mph 54% 0.00 in 114 W/m2
19:35 34.4 °F 19.0 °F 30.26 in East 15.0 mph 17.0 mph 53% 0.00 in 97 W/m2
19:40 34.2 °F 17.5 °F 30.26 in East 11.0 mph 17.0 mph 50% 0.00 in 81 W/m2
19:45 33.9 °F 17.7 °F 30.26 in ESE 12.0 mph 17.0 mph 51% 0.00 in 69 W/m2
19:50 33.8 °F 17.6 °F 30.27 in East 9.0 mph 16.0 mph 51% 0.00 in 51 W/m2
19:55 33.5 °F 18.2 °F 30.26 in East 11.0 mph 13.0 mph 53% 0.00 in 33 W/m2
20:00 32.9 °F 17.6 °F 30.27 in ESE 8.0 mph 13.0 mph 53% 0.00 in 19 W/m2
20:05 32.4 °F 18.4 °F 30.27 in ESE 8.0 mph 12.0 mph 56% 0.00 in 16 W/m2
20:10 31.9 °F 18.8 °F 30.27 in ESE 5.0 mph 10.0 mph 58% 0.00 in 12 W/m2
20:15 31.5 °F 19.2 °F 30.27 in East 5.0 mph 9.0 mph 60% 0.00 in 11 W/m2
20:20 31.1 °F 19.2 °F 30.26 in East 7.0 mph 9.0 mph 61% 0.00 in 9 W/m2
20:25 30.7 °F 19.6 °F 30.26 in East 6.0 mph 8.0 mph 63% 0.00 in 7 W/m2
20:30 30.4 °F 19.7 °F 30.26 in East 5.0 mph 8.0 mph 64% 0.00 in 5 W/m2
20:35 30.0 °F 19.3 °F 30.26 in East 5.0 mph 8.0 mph 64% 0.00 in 0 W/m2
20:40 29.7 °F 19.0 °F 30.26 in East 6.0 mph 8.0 mph 64% 0.00 in 0 W/m2
20:45 29.4 °F 19.1 °F 30.26 in East 5.0 mph 8.0 mph 65% 0.00 in 0 W/m2
20:50 29.1 °F 19.2 °F 30.27 in East 5.0 mph 8.0 mph 66% 0.00 in 0 W/m2
20:55 28.8 °F 18.9 °F 30.27 in East 2.0 mph 7.0 mph 66% 0.00 in 0 W/m2
21:00 28.6 °F 19.0 °F 30.27 in East 3.0 mph 7.0 mph 67% 0.00 in 0 W/m2
21:05 28.5 °F 18.9 °F 30.27 in East 5.0 mph 7.0 mph 67% 0.00 in 0 W/m2
21:10 28.3 °F 18.7 °F 30.27 in East 5.0 mph 7.0 mph 67% 0.00 in 0 W/m2
21:15 28.1 °F 18.5 °F 30.27 in East 6.0 mph 6.0 mph 67% 0.00 in 0 W/m2
21:20 28.0 °F 18.8 °F 30.27 in East 6.0 mph 6.0 mph 68% 0.00 in 0 W/m2
21:25 27.8 °F 18.6 °F 30.27 in East 6.0 mph 8.0 mph 68% 0.00 in 0 W/m2
21:30 27.7 °F 18.5 °F 30.27 in East 6.0 mph 8.0 mph 68% 0.00 in 0 W/m2
21:35 27.6 °F 18.8 °F 30.27 in East 7.0 mph 8.0 mph 69% 0.00 in 0 W/m2
21:40 27.4 °F 18.6 °F 30.27 in ENE 4.0 mph 8.0 mph 69% 0.00 in 0 W/m2
21:45 27.3 °F 18.5 °F 30.27 in East 6.0 mph 8.0 mph 69% 0.00 in 0 W/m2
21:50 27.3 °F 18.8 °F 30.27 in East 5.0 mph 8.0 mph 70% 0.00 in 0 W/m2
21:55 27.3 °F 18.8 °F 30.27 in East 5.0 mph 8.0 mph 70% 0.00 in 0 W/m2
22:00 27.3 °F 18.5 °F 30.27 in ENE 5.0 mph 8.0 mph 69% 0.00 in 0 W/m2
22:05 27.2 °F 18.7 °F 30.27 in East 8.0 mph 9.0 mph 70% 0.00 in 0 W/m2
22:10 27.1 °F 18.6 °F 30.27 in East 8.0 mph 10.0 mph 70% 0.00 in 0 W/m2
22:15 27.0 °F 18.5 °F 30.27 in East 7.0 mph 10.0 mph 70% 0.00 in 0 W/m2
22:20 26.9 °F 18.4 °F 30.27 in East 6.0 mph 9.0 mph 70% 0.00 in 0 W/m2
22:25 26.9 °F 18.7 °F 30.26 in East 6.0 mph 8.0 mph 71% 0.00 in 0 W/m2
22:30 26.8 °F 18.7 °F 30.27 in East 7.0 mph 8.0 mph 71% 0.00 in 0 W/m2
22:35 26.7 °F 18.6 °F 30.27 in East 5.0 mph 8.0 mph 71% 0.00 in 0 W/m2
22:40 26.7 °F 18.6 °F 30.27 in East 6.0 mph 7.0 mph 71% 0.00 in 0 W/m2
22:45 26.7 °F 18.6 °F 30.27 in East 5.0 mph 6.0 mph 71% 0.00 in 0 W/m2
22:50 26.6 °F 18.5 °F 30.27 in East 5.0 mph 6.0 mph 71% 0.00 in 0 W/m2
22:55 26.5 °F 18.4 °F 30.27 in East 6.0 mph 6.0 mph 71% 0.00 in 0 W/m2
23:00 26.4 °F 18.3 °F 30.27 in East 5.0 mph 6.0 mph 71% 0.00 in 0 W/m2
23:05 26.4 °F 18.3 °F 30.27 in East 6.0 mph 7.0 mph 71% 0.00 in 0 W/m2
23:10 26.4 °F 18.3 °F 30.27 in ENE 3.0 mph 7.0 mph 71% 0.00 in 0 W/m2
23:15 26.3 °F 18.2 °F 30.27 in East 2.0 mph 7.0 mph 71% 0.00 in 0 W/m2
23:20 26.2 °F 18.1 °F 30.27 in East 3.0 mph 5.0 mph 71% 0.00 in 0 W/m2
23:25 25.9 °F 18.1 °F 30.27 in East 6.0 mph 6.0 mph 72% 0.00 in 0 W/m2
23:30 25.8 °F 18.3 °F 30.26 in East 8.0 mph 8.0 mph 73% 0.00 in 0 W/m2
23:35 25.7 °F 18.6 °F 30.26 in East 6.0 mph 9.0 mph 74% 0.00 in 0 W/m2
23:40 25.6 °F 18.5 °F 30.26 in East 7.0 mph 10.0 mph 74% 0.00 in 0 W/m2
23:45 25.4 °F 18.6 °F 30.26 in ENE 7.0 mph 10.0 mph 75% 0.00 in 0 W/m2
23:50 25.3 °F 18.5 °F 30.26 in East 7.0 mph 10.0 mph 75% 0.00 in 0 W/m2
23:55 25.1 °F 18.6 °F 30.26 in ENE 7.0 mph 10.0 mph 76% 0.00 in 0 W/m2
Bismarck, North Dakota, USA
Compliments of Weather Underground - 4 mb